Aviation Digital Data Service (ADDS)

Output produced by METARs form (1732 UTC 27 May 2017)
found at http://www.aviationweather.gov/adds/metars/
 
SEGU 271600Z 2718/2818 06007KT 9999 SCT020 SCT100 
     FM280000 22009KT 9999 BKN020 BKN100 
     FM281100 30004KT 9999 SCT020 BKN100 TX32/2719Z TN24/2810Z
       
SELT 271600Z 2718/2818 18018KT 9999 BKN030 SCT100 
     BECMG 2723/2801 17008KT 
     FM280700 19004KT 9999 FEW010 BKN026 
     FM281200 18010KT 9999 SCT030 SCT090 TX17/2719Z TN10/2811Z
       
SEMT 271600Z 2718/2818 33008KT 9999 BKN030 
     BECMG 2723/2801 22005KT 
     FM280600 20004KT 9999 BKN023 
     FM281200 20004KT 9999 SCT026 SCT090 TX30/2720Z TN24/2810Z
       
SEQM 271600Z 2718/2818 36010KT 9999 BKN036 SCT100 
     FM280000 VRB03KT 9999 FEW005 BKN023 
     FM280600 00000KT 9999 FEW005 SCT020 BKN090 
     FM281200 VRB03KT 9999 SCT023 SCT100 TX20/2719Z TN10/2811Z